Latest Coastal Weather Observations for Albany Airport

IDW60701

Issued at 5:21 am WST Monday 2 May 2016 (issued every 10 minutes, with the page automatically refreshed every 10 minutes)

About coastal observations | Map of coastal stations | Coastal observations for WA | Marine services | Other Formats
Station Details ID: 009999 Name: ALBANY AIRPORT Lat: -34.94 Lon: 117.82 Height: 68.4 m
Data from the previous 72 hours. | See also: Recent months at Albany Airport
Date/Time
WST
Temp

°C
Wind Pressure Rain
since 9am
mm
Weather Cloud Vis
km
Sea
Height
m
Swell
Dir
 
Speed
knots
Gust
knots
hPa Trend Height
m
Period
s
Dir
02/05:00am 12.1 WNW 11 14 1017.0 - 0.4 - Partly cloudy 10 - - - -
02/04:30am 11.8 NW 10 13 1016.9 - 0.4 - Partly cloudy 10 - - - -
02/04:00am 11.8 WNW 9 11 1016.9 - 0.4 - - 10 - - - -
02/03:30am 11.8 NW 9 13 1016.6 - 0.4 - Partly cloudy 10 - - - -
02/03:00am 11.8 NW 11 15 1016.9 - 0.4 - - 10 - - - -
02/02:30am 12.0 WNW 11 15 1017.2 - 0.4 - - 10 - - - -
02/02:00am 12.2 NW 11 16 1017.3 - 0.4 - - 10 - - - -
02/01:30am 12.1 NW 10 14 1017.5 - 0.4 - - 10 - - - -
02/01:00am 12.4 WNW 12 15 1017.6 - 0.4 - Partly cloudy 10 - - - -
02/12:30am 12.5 NW 10 13 1017.8 - 0.4 - Partly cloudy 10 - - - -
02/12:00am 12.1 NW 10 14 1017.8 - 0.4 - Mostly clear 10 - - - -
 
Date/Time
WST
Temp

°C
Wind Pressure Rain
since 9am
mm
Weather Cloud Vis
km
Sea
Height
m
Swell
Dir
 
Speed
knots
Gust
knots
hPa Trend Height
m
Period
s
Dir
01/11:30pm 11.9 NW 10 12 1018.0 - 0.4 - - 10 - - - -
01/11:00pm 11.9 NW 10 13 1018.2 - 0.4 - - 10 - - - -
01/10:30pm 12.0 NW 9 12 1018.5 - 0.4 - - 10 - - - -
01/10:00pm 12.1 NW 10 13 1018.6 - 0.4 - - 10 - - - -
01/09:30pm 12.0 NW 9 12 1018.7 - 0.4 - Partly cloudy 10 - - - -
01/09:00pm 12.2 NW 9 13 1019.0 - 0.4 - - 10 - - - -
01/08:32pm 12.6 NW 9 11 1019.1 - 0.4 - Partly cloudy 10 - - - -
01/08:30pm 12.6 NW 8 11 1019.1 - 0.4 - Partly cloudy 10 - - - -
01/08:16pm 12.9 WNW 8 10 1019.2 - 0.4 - Partly cloudy 6 - - - -
01/08:00pm 13.2 WNW 8 11 1019.4 - 0.4 - Partly cloudy 10 - - - -
01/07:30pm 13.0 WNW 8 9 1019.5 - 0.4 - Partly cloudy 10 - - - -
01/07:00pm 13.5 WNW 9 12 1019.6 - 0.4 - Partly cloudy 10 - - - -
01/06:30pm 13.6 WNW 6 9 1019.6 - 0.4 - Partly cloudy 10 - - - -
01/06:00pm 13.1 NW 6 7 1019.3 - 0.4 - Mostly cloudy 10 - - - -
01/05:30pm 14.1 WNW 7 9 1019.1 - 0.4 - Partly cloudy 10 - - - -
01/05:00pm 14.0 NW 5 6 1019.0 - 0.4 - Partly cloudy 10 - - - -
01/04:48pm 14.3 WNW 6 8 1019.0 - 0.4 - Partly cloudy 10 - - - -
01/04:30pm 14.1 WSW 10 14 1019.2 - 0.2 - Partly cloudy 4 - - - -
01/04:28pm 14.2 WSW 10 14 1019.2 - 0.2 - Partly cloudy 6 - - - -
01/04:00pm 16.0 WNW 10 15 1019.1 - 0.0 - Partly cloudy 10 - - - -
01/03:31pm 14.4 W 8 12 1019.2 - 0.0 - Partly cloudy 10 - - - -
01/03:30pm 14.4 W 8 11 1019.2 - 0.0 - Partly cloudy 10 - - - -
01/03:17pm 14.3 W 14 21 1019.3 - 0.0 - Partly cloudy 6 - - - -
01/03:00pm 16.2 W 12 15 1019.1 - 0.0 - Cloudy 10 - - - -
01/02:30pm 15.7 W 12 17 1019.1 - 0.0 - Partly cloudy 10 - - - -
01/02:16pm 15.4 W 9 13 1019.2 - 0.0 - Partly cloudy 10 - - - -
01/02:00pm 13.9 WSW 15 22 1019.4 - 0.0 - Partly cloudy 5 - - - -
01/01:58pm 14.1 W 15 22 1019.4 - 0.0 - Partly cloudy 6 - - - -
01/01:30pm 16.8 W 11 14 1019.1 - 0.0 - Partly cloudy 10 - - - -
01/01:00pm 15.7 W 12 20 1019.5 - 0.0 - Partly cloudy 10 - - - -
01/12:30pm 16.2 W 13 17 1019.7 - 0.0 - Partly cloudy 10 - - - -
01/12:00pm 14.2 WNW 14 18 1020.4 - 0.0 - Cloudy 10 - - - -
01/11:30am 15.4 W 12 18 1020.7 - 0.0 - Partly cloudy 10 - - - -
01/11:00am 15.7 W 10 14 1020.8 - 0.0 - Partly cloudy 10 - - - -
01/10:30am 15.1 WNW 10 12 1020.9 - 0.0 - Partly cloudy 10 - - - -
01/10:08am 13.7 WNW 9 12 1021.2 - 0.0 - Partly cloudy 10 - - - -
01/10:00am 13.4 WNW 8 12 1021.3 - 0.0 - Partly cloudy 9 - - - -
01/09:50am 13.0 W 10 15 1021.5 - 0.0 - Partly cloudy 6 - - - -
01/09:30am 13.4 NW 8 10 1021.5 - 0.0 - Partly cloudy 10 - - - -
01/09:00am 12.3 NW 9 13 1021.6 - 0.4 - Cloudy 10 - - - -
01/08:30am 11.7 NW 9 11 1021.3 - 0.4 - Partly cloudy 10 - - - -
01/08:00am 11.0 NW 8 9 1021.1 - 0.4 - Partly cloudy 10 - - - -
01/07:30am 10.5 NW 7 8 1021.1 - 0.4 - Partly cloudy 10 - - - -
01/07:00am 10.2 NW 6 8 1020.8 - 0.4 - Partly cloudy 10 - - - -
01/06:30am 9.9 NW 7 9 1020.7 - 0.4 - Partly cloudy 10 - - - -
01/06:26am 10.0 NW 7 9 1020.6 - 0.4 - Partly cloudy 10 - - - -
01/06:00am 10.0 W 7 10 1020.8 - 0.4 - Cloudy 3 - - - -
01/05:56am 10.0 W 7 10 1020.7 - 0.2 - Partly cloudy 5 - - - -
01/05:30am 10.1 NW 5 7 1020.4 - 0.2 - Partly cloudy 10 - - - -
01/05:00am 10.2 NNW 6 9 1020.3 - 0.2 - Partly cloudy 10 - - - -
01/04:57am 10.2 NNW 6 9 1020.3 - 0.2 - Partly cloudy 10 - - - -
01/04:31am 10.4 WNW 9 11 1020.4 - 0.2 - Partly cloudy 6 - - - -
01/04:30am 10.4 WNW 10 13 1020.4 - 0.2 - Partly cloudy 7 - - - -
01/04:00am 10.4 WNW 7 8 1020.4 - 0.2 - Cloudy 7 - - - -
01/03:53am 10.4 WNW 8 9 1020.5 - 0.2 - Partly cloudy 10 - - - -
01/03:30am 10.4 WNW 10 14 1020.6 - 0.2 - Partly cloudy 3 - - - -
01/03:08am 11.0 WNW 9 11 1020.6 - 0.0 - Partly cloudy 6 - - - -
01/03:00am 11.1 WNW 9 11 1020.6 - 0.0 - Cloudy 10 - - - -
01/02:30am 11.0 WNW 7 10 1020.5 - 0.0 - Partly cloudy 10 - - - -
01/02:00am 11.2 WNW 8 11 1020.6 - 0.0 - Partly cloudy 10 - - - -
01/01:30am 11.2 WNW 8 10 1020.7 - 0.0 - Cloudy 10 - - - -
01/01:00am 11.2 WNW 8 10 1020.7 - 0.0 - Cloudy 10 - - - -
01/12:30am 11.1 NW 7 9 1020.8 - 0.0 - Cloudy 10 - - - -
01/12:00am 11.2 NW 8 10 1020.9 - 0.0 - Mostly cloudy 10 - - - -
 
Date/Time
WST
Temp

°C
Wind Pressure Rain
since 9am
mm
Weather Cloud Vis
km
Sea
Height
m
Swell
Dir
 
Speed
knots
Gust
knots
hPa Trend Height
m
Period
s
Dir
30/11:30pm 11.2 NW 7 8 1020.8 - 0.0 - Cloudy 10 - - - -
30/11:00pm 11.4 WNW 9 11 1020.9 - 0.0 - Cloudy 10 - - - -
30/10:30pm 11.2 NW 7 9 1021.0 - 0.0 - Cloudy 10 - - - -
30/10:00pm 11.2 WNW 6 7 1021.2 - 0.0 - Cloudy 10 - - - -
30/09:30pm 11.2 WNW 6 8 1021.1 - 0.0 - Cloudy 10 - - - -
30/09:00pm 11.4 NW 6 7 1021.2 - 0.0 - Cloudy 10 - - - -
30/08:30pm 11.4 NW 7 8 1021.0 - 0.0 - Cloudy 10 - - - -
30/08:00pm 11.8 WNW 9 11 1021.0 - 0.0 - Partly cloudy 10 - - - -
30/07:30pm 11.6 WNW 8 11 1020.9 - 0.0 - Cloudy 10 - - - -
30/07:00pm 11.7 NW 8 9 1020.6 - 0.0 - Cloudy 10 - - - -
30/06:30pm 12.0 WNW 6 7 1020.5 - 0.0 - Partly cloudy 10 - - - -
30/06:00pm 11.8 NW 6 6 1020.2 - 0.0 - Cloudy 10 - - - -
30/05:30pm 12.3 W 5 6 1020.0 - 0.0 - Cloudy 10 - - - -
30/05:00pm 12.4 WNW 8 13 1019.8 - 0.0 - Partly cloudy 10 - - - -
30/04:30pm 13.4 W 9 14 1019.6 - 0.0 - Cloudy 10 - - - -
30/04:00pm 14.0 WSW 9 12 1019.4 - 0.0 - Partly cloudy 10 - - - -
30/03:30pm 14.6 SW 8 11 1019.2 - 0.0 - Partly cloudy 10 - - - -
30/03:00pm 14.7 WSW 10 14 1018.9 - 0.0 - Mostly cloudy 10 - - - -
30/02:30pm 13.9 W 8 14 1018.8 - 0.0 - Partly cloudy 10 - - - -
30/02:00pm 14.4 WSW 10 17 1018.7 - 0.0 - Partly cloudy 10 - - - -
30/01:30pm 14.7 SW 9 11 1018.4 - 0.0 - Partly cloudy 10 - - - -
30/01:00pm 14.8 SSW 11 15 1018.4 - 0.0 - Partly cloudy 10 - - - -
30/12:30pm 15.7 SW 11 16 1018.5 - 0.0 - Partly cloudy 10 - - - -
30/12:00pm 14.3 WSW 7 10 1018.8 - 0.0 - Cloudy 10 - - - -
30/11:30am 14.4 SW 14 18 1018.9 - 0.0 - Partly cloudy 10 - - - -
30/11:00am 14.5 WSW 11 14 1018.8 - 0.0 - Cloudy 10 - - - -
30/10:30am 14.7 WSW 12 17 1018.7 - 0.0 - Cloudy 10 - - - -
30/10:00am 14.6 WSW 11 16 1018.5 - 0.0 - Cloudy 10 - - - -
30/09:30am 13.6 SW 8 13 1018.5 - 0.0 - Partly cloudy 10 - - - -
30/09:00am 14.0 SW 11 17 1018.3 - 16.2 - Partly cloudy 10 - - - -
30/08:30am 13.9 SW 10 14 1018.0 - 16.2 - Partly cloudy 10 - - - -
30/08:00am 11.9 SW 10 14 1017.6 - 16.2 - Partly cloudy 10 - - - -
30/07:30am 10.1 WNW 8 10 1017.0 - 16.2 - Partly cloudy 10 - - - -
30/07:00am 9.8 NW 9 11 1016.4 - 16.2 - Partly cloudy 10 - - - -
30/06:30am 9.5 WNW 7 9 1016.1 - 16.2 - Partly cloudy 10 - - - -
30/06:00am 9.1 W 7 8 1015.9 - 16.2 - Mostly clear 10 - - - -
30/05:30am 8.5 WNW 8 11 1015.7 - 16.2 - Partly cloudy 10 - - - -
30/05:00am 8.1 NW 8 11 1015.5 - 16.2 - Partly cloudy 10 - - - -
30/04:30am 8.0 NW 8 9 1015.2 - 16.2 - Partly cloudy 10 - - - -
30/04:00am 8.3 WNW 7 8 1014.9 - 16.2 - Partly cloudy 10 - - - -
30/03:30am 7.9 WNW 9 10 1014.6 - 16.0 - Partly cloudy 10 - - - -
30/03:00am 8.8 WNW 8 9 1014.4 - 16.0 - Cloudy 10 - - - -
30/02:30am 10.5 WSW 9 14 1014.3 - 16.0 - Partly cloudy 10 - - - -
30/02:00am 8.6 W 8 9 1014.0 - 16.0 - Partly cloudy 10 - - - -
30/01:30am 8.8 NW 9 11 1014.0 - 16.0 - Partly cloudy 10 - - - -
30/01:00am 10.4 W 9 12 1013.8 - 16.0 - Partly cloudy 10 - - - -
30/12:30am 10.5 W 11 18 1013.8 - 16.0 - Partly cloudy 10 - - - -
30/12:00am 10.5 WNW 7 9 1013.2 - 15.8 - Cloudy 10 - - - -
 
Date/Time
WST
Temp

°C
Wind Pressure Rain
since 9am
mm
Weather Cloud Vis
km
Sea
Height
m
Swell
Dir
 
Speed
knots
Gust
knots
hPa Trend Height
m
Period
s
Dir
29/11:30pm 10.4 WNW 9 10 1013.4 - 15.8 - Partly cloudy 10 - - - -
29/11:00pm 10.4 WNW 8 9 1013.4 - 15.8 - Partly cloudy 10 - - - -
29/10:36pm 10.6 WNW 7 11 1013.5 - 15.8 - Partly cloudy 10 - - - -
29/10:30pm 10.7 WNW 9 11 1013.6 - 15.8 - Partly cloudy 8 - - - -
29/10:15pm 10.8 W 8 11 1013.8 - 15.2 - Partly cloudy 6 - - - -
29/10:00pm 11.1 W 9 16 1013.2 - 14.8 - Partly cloudy 9 - - - -
29/09:30pm 11.9 W 8 10 1012.9 - 14.4 - Partly cloudy 10 - - - -
29/09:00pm 11.9 WSW 9 13 1012.5 - 14.2 - Cloudy 9 - - - -
29/08:30pm 12.1 WSW 10 16 1012.2 - 14.0 - Partly cloudy 8 - - - -
29/08:00pm 13.1 WSW 9 13 1011.9 - 13.8 - Partly cloudy 10 - - - -
29/07:30pm 13.2 SW 11 15 1011.7 - 13.8 - Partly cloudy 10 - - - -
29/07:00pm 13.1 SW 11 15 1011.2 - 13.8 - Partly cloudy 10 - - - -
29/06:30pm 12.8 SW 9 12 1010.7 - 13.8 - Partly cloudy 10 - - - -
29/06:00pm 13.0 WSW 9 12 1010.2 - 13.8 - Cloudy 9 - - - -
29/05:30pm 13.2 SW 9 12 1009.8 - 13.8 - Partly cloudy 8 - - - -
29/05:07pm 13.1 W 7 9 1009.6 - 13.6 - Partly cloudy 9 - - - -
29/05:00pm 13.1 W 8 11 1009.5 - 13.6 - Partly cloudy 7 - - - -
29/04:32pm 13.1 SW 12 16 1009.5 - 13.0 - Partly cloudy 6 - - - -
29/04:30pm 13.2 W 8 11 1009.5 - 12.8 - Partly cloudy 8 - - - -
29/04:15pm 13.2 W 9 11 1009.2 - 12.6 - Partly cloudy 8 - - - -
29/04:09pm 13.1 WSW 9 13 1009.3 - 12.6 - Partly cloudy 7 - - - -
29/04:00pm 13.1 SW 11 13 1009.3 - 12.6 - Partly cloudy 5 - - - -
29/03:48pm 13.4 SW 11 16 1009.4 - 12.4 - Partly cloudy 4 - - - -
29/03:30pm 13.8 WSW 11 14 1009.0 - 11.8 - Partly cloudy 5 - - - -
29/03:29pm 13.8 WSW 11 15 1009.0 - 11.8 - Partly cloudy 5 - - - -
29/03:00pm 13.9 SW 11 15 1008.7 - 11.2 - Cloudy 3 - - - -
29/02:30pm 14.0 WSW 13 21 1008.3 - 9.6 - Partly cloudy 3 - - - -
29/02:22pm 14.1 SW 15 23 1008.2 - 8.8 - Partly cloudy 2 - - - -
29/02:00pm 15.0 W 16 29 1007.5 - 5.4 - Partly cloudy 1 - - - -
29/01:59pm 15.1 W 15 29 1007.5 - 5.4 - Partly cloudy 1 - - - -
29/01:49pm 16.5 WNW 16 24 1007.3 - 0.6 - Partly cloudy 6 - - - -
29/01:30pm 17.6 WNW 17 24 1007.4 - 0.2 - Partly cloudy 10 - - - -
29/01:26pm 16.7 WNW 16 22 1007.5 - 0.2 - Partly cloudy 10 - - - -
29/01:08pm 16.1 WNW 20 26 1007.4 - 0.2 - Partly cloudy 6 - - - -
29/01:00pm 17.3 WNW 19 27 1007.4 - 0.2 - Partly cloudy 10 - - - -
29/12:30pm 18.5 WNW 20 27 1007.7 - 0.2 - Partly cloudy 10 - - - -
29/12:00pm 17.9 WNW 18 26 1008.0 - 0.2 - Mostly cloudy 10 - - - -
29/11:59am 17.8 WNW 18 26 1008.0 - 0.2 - Partly cloudy 10 - - - -
29/11:39am 15.7 WNW 21 39 1008.3 - 0.0 - Partly cloudy 5 - - - -
29/11:30am 17.5 W 21 31 1008.2 - 0.0 - Partly cloudy 10 - - - -
29/11:25am 17.4 W 21 31 1008.3 - 0.0 - Partly cloudy 10 - - - -
29/11:00am 18.6 W 21 29 1008.3 - 0.0 - Partly cloudy 10 - - - -
29/10:32am 18.0 WNW 19 29 1008.4 - 0.0 - Partly cloudy 10 - - - -
29/10:30am 18.0 WNW 20 29 1008.4 - 0.0 - Partly cloudy 10 - - - -
29/10:01am 17.7 WNW 19 29 1008.6 - 0.0 - Partly cloudy 10 - - - -
29/10:00am 17.7 WNW 19 27 1008.6 - 0.0 - Partly cloudy 10 - - - -
29/09:30am 17.0 WNW 17 23 1009.0 - 0.0 - Partly cloudy 10 - - - -
29/09:00am 16.2 WNW 15 20 1009.1 - 13.2 - Mostly clear 10 - - - -
29/08:30am 14.6 NW 14 18 1009.4 - 13.2 - Partly cloudy 10 - - - -
29/08:00am 13.7 WNW 15 21 1009.4 - 13.2 - Partly cloudy 10 - - - -
29/07:30am 13.0 NW 14 19 1009.5 - 13.2 - Partly cloudy 10 - - - -
29/07:00am 12.7 NW 13 17 1009.4 - 13.2 - Partly cloudy 10 - - - -
29/06:30am 12.9 NW 11 16 1009.8 - 13.2 - Partly cloudy 10 - - - -
29/06:00am 13.0 NW 12 16 1009.9 - 13.2 - Mostly cloudy 10 - - - -
29/05:30am 12.9 NW 12 15 1010.1 - 13.2 - Partly cloudy 10 - - - -

Other Formats:

Comma delimited format used in spreadsheet applications
http://www.bom.gov.au/fwo/IDW60701/IDW60701.94802.axf

JavaScript Object Notation format (JSON) in row-major order
http://www.bom.gov.au/fwo/IDW60701/IDW60701.94802.json